Time;durP1;ratioP1;P1;durP2;ratioP2;P2;SDS_P1;SDS_P2;PMS_P1;PMS_P2;Temp;Humidity;BMP_temperature;BMP_pressure;BME280_temperature;BME280_humidity;BME280_pressure;Samples;Min_cycle;Max_cycle;Signal;HPM_P1;HPM_P2
2022/09/11 00:02:02;;;;;;;7.85;5.47;;;;;;;;;;5055286;28;20053;-70
2022/09/11 00:04:32;;;;;;;7.13;5.68;;;;;;;;;;5055139;28;20049;-70
2022/09/11 00:06:58;;;;;;;6.65;5.93;;;;;;;;;;5055262;28;20059;-70
2022/09/11 00:09:25;;;;;;;6.68;5.13;;;;;;;;;;5055014;28;20119;-70
2022/09/11 00:11:52;;;;;;;7.27;5.27;;;;;;;;;;5054534;28;20061;-70
2022/09/11 00:14:18;;;;;;;7.10;5.93;;;;;;;;;;5054697;28;20045;-70
2022/09/11 00:16:45;;;;;;;12.27;6.43;;;;;;;;;;5054807;28;20051;-70
2022/09/11 00:19:14;;;;;;;6.05;5.45;;;;;;;;;;5054863;28;20049;-70
2022/09/11 00:21:41;;;;;;;8.15;5.63;;;;;;;;;;5054781;28;20052;-70
2022/09/11 00:24:09;;;;;;;8.52;6.65;;;;;;;;;;5054610;28;20059;-70
2022/09/11 00:26:35;;;;;;;6.75;6.05;;;;;;;;;;5054615;28;20049;-70
2022/09/11 00:29:03;;;;;;;9.13;6.30;;;;;;;;;;5054530;28;20056;-70
2022/09/11 00:31:29;;;;;;;7.47;5.78;;;;;;;;;;5052960;28;20045;-70
2022/09/11 00:33:56;;;;;;;6.70;6.10;;;;;;;;;;5054349;28;20493;-70
2022/09/11 00:36:23;;;;;;;8.20;5.55;;;;;;;;;;5054686;28;20049;-71
2022/09/11 00:38:49;;;;;;;5.97;5.20;;;;;;;;;;5054477;28;20055;-70
2022/09/11 00:41:16;;;;;;;7.45;5.75;;;;;;;;;;5054426;28;20053;-70
2022/09/11 00:43:50;;;;;;;9.10;5.70;;;;;;;;;;5033694;28;20054;-71
2022/09/11 00:46:16;;;;;;;8.00;5.70;;;;;;;;;;5046529;28;20056;-71
2022/09/11 00:48:48;;;;;;;7.38;6.03;;;;;;;;;;5053207;28;20063;-71
2022/09/11 00:51:23;;;;;;;8.57;5.47;;;;;;;;;;5053613;28;20515;-70
2022/09/11 00:53:50;;;;;;;9.73;5.70;;;;;;;;;;5053985;28;20045;-70
2022/09/11 00:56:17;;;;;;;5.97;5.47;;;;;;;;;;5054215;28;20049;-71
2022/09/11 00:58:45;;;;;;;6.07;5.47;;;;;;;;;;5053849;28;20051;-70
2022/09/11 01:01:13;;;;;;;6.88;5.72;;;;;;;;;;5053751;28;20497;-70
2022/09/11 01:03:40;;;;;;;8.48;5.68;;;;;;;;;;5051918;28;20041;-70
2022/09/11 01:06:07;;;;;;;7.53;5.70;;;;;;;;;;5053812;28;20044;-70
2022/09/11 01:08:33;;;;;;;6.30;5.70;;;;;;;;;;5053924;28;20123;-70
2022/09/11 01:11:12;;;;;;;6.60;6.05;;;;;;;;;;5053486;28;20080;-70
2022/09/11 01:14:02;;;;;;;6.47;5.82;;;;;;;;;;5054058;28;20055;-70
2022/09/11 01:16:58;;;;;;;6.55;5.68;;;;;;;;;;5048155;28;20047;-70
2022/09/11 01:19:25;;;;;;;8.52;5.15;;;;;;;;;;5034172;28;20056;-70
2022/09/11 01:22:10;;;;;;;6.40;5.65;;;;;;;;;;5053769;28;20056;-71
2022/09/11 01:24:37;;;;;;;13.00;5.65;;;;;;;;;;5053562;28;20045;-71
2022/09/11 01:27:22;;;;;;;7.10;5.75;;;;;;;;;;5053465;28;20085;-70
2022/09/11 01:29:58;;;;;;;7.55;5.25;;;;;;;;;;5053467;28;20049;-71
2022/09/11 01:32:32;;;;;;;8.82;5.07;;;;;;;;;;5053588;28;20064;-70
2022/09/11 01:35:02;;;;;;;8.68;5.75;;;;;;;;;;5053432;28;20049;-70
2022/09/11 01:37:41;;;;;;;6.10;5.50;;;;;;;;;;5053443;28;20387;-71
2022/09/11 01:40:11;;;;;;;6.13;5.47;;;;;;;;;;5053376;28;20044;-71
2022/09/11 01:42:41;;;;;;;6.82;5.88;;;;;;;;;;5053192;28;20408;-70
2022/09/11 01:45:09;;;;;;;5.82;5.30;;;;;;;;;;5053193;28;20049;-70
2022/09/11 01:47:36;;;;;;;5.95;5.30;;;;;;;;;;5053222;28;20496;-71
2022/09/11 01:50:03;;;;;;;8.05;5.85;;;;;;;;;;5053296;28;20416;-71
2022/09/11 01:52:30;;;;;;;7.75;6.10;;;;;;;;;;5052799;28;20045;-71
2022/09/11 01:54:58;;;;;;;;;;;;;;;;;;5053542;28;20045;-70
2022/09/11 01:57:24;;;;;;;;;;;;;;;;;;5052386;28;19935;-71
2022/09/11 01:59:55;;;;;;;6.43;5.38;;;;;;;;;;5052753;28;20376;-71
2022/09/11 02:02:27;;;;;;;8.73;5.90;;;;;;;;;;5052963;28;20155;-70
2022/09/11 02:05:05;;;;;;;7.07;5.82;;;;;;;;;;5053086;28;20056;-71
2022/09/11 02:07:34;;;;;;;9.23;5.72;;;;;;;;;;5052791;28;20053;-70
2022/09/11 02:10:09;;;;;;;6.18;5.40;;;;;;;;;;5052888;28;20049;-71
2022/09/11 02:12:42;;;;;;;8.15;5.22;;;;;;;;;;5052389;28;20056;-70
2022/09/11 02:15:09;;;;;;;8.40;6.05;;;;;;;;;;5052821;28;20059;-71
2022/09/11 02:17:58;;;;;;;8.20;5.83;;;;;;;;;;5052459;28;20052;-71
2022/09/11 02:20:24;;;;;;;6.22;5.07;;;;;;;;;;5052687;28;20055;-70
2022/09/11 02:22:51;;;;;;;6.45;5.50;;;;;;;;;;5052615;28;20063;-71
2022/09/11 02:25:18;;;;;;;7.10;5.63;;;;;;;;;;5052224;28;20056;-71
2022/09/11 02:27:44;;;;;;;6.25;5.07;;;;;;;;;;5052418;28;20492;-70
2022/09/11 02:30:11;;;;;;;6.50;5.20;;;;;;;;;;5052429;28;20063;-71
2022/09/11 02:32:39;;;;;;;7.53;5.70;;;;;;;;;;5052105;28;20386;-70
2022/09/11 02:35:06;;;;;;;6.35;5.75;;;;;;;;;;5052371;28;20052;-71
2022/09/11 02:37:35;;;;;;;7.38;6.30;;;;;;;;;;5052078;28;20047;-70
2022/09/11 02:40:09;;;;;;;8.93;5.70;;;;;;;;;;5052131;28;20041;-70
2022/09/11 02:42:53;;;;;;;7.50;5.90;;;;;;;;;;5052135;28;20084;-71
2022/09/11 02:45:19;;;;;;;7.18;6.20;;;;;;;;;;5050913;28;20091;-70
2022/09/11 02:47:48;;;;;;;7.03;5.63;;;;;;;;;;5051947;28;20071;-71
2022/09/11 02:50:27;;;;;;;6.60;5.53;;;;;;;;;;5051892;28;20052;-71
2022/09/11 02:52:53;;;;;;;7.63;5.60;;;;;;;;;;5052111;28;20049;-71
2022/09/11 02:55:38;;;;;;;6.90;6.05;;;;;;;;;;5051803;28;20049;-71
2022/09/11 02:58:09;;;;;;;6.75;5.80;;;;;;;;;;5051986;28;20045;-71
2022/09/11 03:00:36;;;;;;;6.35;5.57;;;;;;;;;;5051695;28;20045;-70
2022/09/11 03:03:03;;;;;;;8.35;5.80;;;;;;;;;;5051745;28;20052;-71
2022/09/11 03:05:30;;;;;;;12.07;6.10;;;;;;;;;;5050819;28;20052;-71
2022/09/11 03:07:56;;;;;;;7.13;5.30;;;;;;;;;;5051869;28;20056;-71
2022/09/11 03:10:23;;;;;;;7.53;5.57;;;;;;;;;;5051868;28;20057;-70
2022/09/11 03:12:49;;;;;;;8.77;5.40;;;;;;;;;;5052016;28;20053;-71
2022/09/11 03:15:16;;;;;;;7.57;5.60;;;;;;;;;;5051810;28;20049;-71
2022/09/11 03:17:42;;;;;;;9.23;5.32;;;;;;;;;;5051803;28;20076;-71
2022/09/11 03:20:09;;;;;;;8.15;5.88;;;;;;;;;;5051531;28;20417;-71
2022/09/11 03:22:35;;;;;;;6.38;5.75;;;;;;;;;;5051720;28;20049;-71
2022/09/11 03:25:02;;;;;;;8.30;5.85;;;;;;;;;;5051772;28;20052;-71
2022/09/11 03:27:29;;;;;;;7.18;5.57;;;;;;;;;;5051177;28;20045;-71
2022/09/11 03:29:55;;;;;;;6.50;5.10;;;;;;;;;;5051592;28;20435;-71
2022/09/11 03:32:22;;;;;;;6.78;4.57;;;;;;;;;;5051230;28;20041;-71
2022/09/11 03:34:48;;;;;;;7.45;5.53;;;;;;;;;;5051650;28;20045;-71
2022/09/11 03:37:14;;;;;;;6.22;5.28;;;;;;;;;;5051275;28;20128;-71
2022/09/11 03:39:42;;;;;;;9.75;6.13;;;;;;;;;;5051641;28;20045;-72
2022/09/11 03:42:11;;;;;;;6.93;5.80;;;;;;;;;;5051400;28;20045;-71
2022/09/11 03:44:38;;;;;;;6.70;6.10;;;;;;;;;;5051504;28;20048;-71
2022/09/11 03:47:04;;;;;;;6.13;5.55;;;;;;;;;;5051557;28;20059;-71
2022/09/11 03:49:31;;;;;;;6.22;5.15;;;;;;;;;;5051448;28;20041;-71
2022/09/11 03:51:57;;;;;;;6.90;5.53;;;;;;;;;;5051474;28;20049;-71
2022/09/11 03:54:24;;;;;;;5.88;5.30;;;;;;;;;;5051334;28;20048;-71
2022/09/11 03:56:50;;;;;;;5.78;5.22;;;;;;;;;;5051418;28;20049;-71
2022/09/11 03:59:18;;;;;;;4.93;4.53;;;;;;;;;;5050729;28;20049;-71
2022/09/11 04:01:45;;;;;;;6.43;5.32;;;;;;;;;;5046025;28;20496;-71
2022/09/11 04:04:11;;;;;;;6.20;4.57;;;;;;;;;;5050940;28;20091;-71
2022/09/11 04:06:39;;;;;;;7.40;5.68;;;;;;;;;;5051363;28;20045;-71
2022/09/11 04:09:06;;;;;;;6.47;5.10;;;;;;;;;;5051243;28;20404;-71
2022/09/11 04:11:34;;;;;;;7.22;4.72;;;;;;;;;;5051102;28;20056;-71
2022/09/11 04:14:02;;;;;;;6.43;5.20;;;;;;;;;;5051228;28;20401;-71
2022/09/11 04:16:31;;;;;;;6.13;4.90;;;;;;;;;;5051018;28;20049;-71
2022/09/11 04:18:58;;;;;;;5.32;4.78;;;;;;;;;;5051035;28;20052;-70
2022/09/11 04:21:26;;;;;;;8.13;5.25;;;;;;;;;;5050918;28;20056;-71
2022/09/11 04:23:55;;;;;;;;;;;;;;;;;;5051439;28;20052;-71
2022/09/11 04:26:22;;;;;;;8.18;4.85;;;;;;;;;;5050986;28;19921;-71
2022/09/11 04:28:49;;;;;;;6.85;5.43;;;;;;;;;;5050790;28;20056;-71
2022/09/11 04:31:17;;;;;;;6.30;5.28;;;;;;;;;;5051146;28;20049;-71
2022/09/11 04:33:44;;;;;;;7.28;5.10;;;;;;;;;;5051081;28;20060;-71
2022/09/11 04:36:12;;;;;;;11.35;5.30;;;;;;;;;;5050831;28;20394;-70
2022/09/11 04:38:40;;;;;;;;;;;;;;;;;;5053234;28;20073;-70
2022/09/11 04:41:07;;;;;;;5.45;4.45;;;;;;;;;;5055083;28;19920;-70
2022/09/11 04:43:34;;;;;;;6.38;5.22;;;;;;;;;;5054530;28;20056;-70
2022/09/11 04:46:01;;;;;;;6.97;5.28;;;;;;;;;;5054129;28;20515;-70
2022/09/11 04:48:28;;;;;;;5.18;4.68;;;;;;;;;;5054187;28;20064;-70
2022/09/11 04:51:02;;;;;;;5.90;5.13;;;;;;;;;;5054083;28;20052;-70
2022/09/11 04:53:28;;;;;;;6.32;4.93;;;;;;;;;;5054176;28;20485;-71
2022/09/11 04:56:02;;;;;;;6.18;5.05;;;;;;;;;;5054289;28;20045;-71
2022/09/11 04:58:29;;;;;;;5.80;5.00;;;;;;;;;;5054074;28;20041;-71
2022/09/11 05:00:55;;;;;;;5.90;5.20;;;;;;;;;;5053603;28;20053;-71
2022/09/11 05:03:21;;;;;;;5.93;5.03;;;;;;;;;;5053872;28;20460;-71
2022/09/11 05:05:48;;;;;;;5.10;4.68;;;;;;;;;;5054125;28;20045;-71
2022/09/11 05:08:17;;;;;;;8.63;5.13;;;;;;;;;;5053921;28;20053;-71
2022/09/11 05:10:44;;;;;;;6.50;4.97;;;;;;;;;;5053523;28;20061;-70
2022/09/11 05:13:10;;;;;;;5.47;4.97;;;;;;;;;;5053623;28;20044;-71
2022/09/11 05:15:37;;;;;;;6.97;5.45;;;;;;;;;;5053997;28;20049;-71
2022/09/11 05:18:03;;;;;;;6.05;5.20;;;;;;;;;;5053914;28;20065;-71
2022/09/11 05:20:30;;;;;;;8.65;6.78;;;;;;;;;;5053477;28;20428;-71
2022/09/11 05:22:57;;;;;;;22.48;7.47;;;;;;;;;;5052420;28;20481;-71
2022/09/11 05:25:26;;;;;;;22.63;7.88;;;;;;;;;;5053893;28;20053;-71
2022/09/11 05:27:52;;;;;;;23.38;7.57;;;;;;;;;;5053728;28;20055;-71
2022/09/11 05:30:19;;;;;;;30.63;9.25;;;;;;;;;;5053484;28;20056;-71
2022/09/11 05:32:46;;;;;;;26.67;8.35;;;;;;;;;;5053594;28;20064;-70
2022/09/11 05:35:13;;;;;;;35.70;8.63;;;;;;;;;;5053571;28;20053;-71
2022/09/11 05:37:40;;;;;;;38.20;9.43;;;;;;;;;;5053520;28;20052;-71
2022/09/11 05:40:06;;;;;;;26.00;8.55;;;;;;;;;;5053167;28;20128;-71
2022/09/11 05:42:33;;;;;;;21.25;9.30;;;;;;;;;;5053159;28;20095;-72
2022/09/11 05:44:59;;;;;;;19.27;8.57;;;;;;;;;;5053414;28;20044;-71
2022/09/11 05:47:26;;;;;;;17.08;9.25;;;;;;;;;;5053509;28;20052;-71
2022/09/11 05:49:52;;;;;;;21.42;7.88;;;;;;;;;;5053307;28;20053;-71
2022/09/11 05:52:19;;;;;;;12.57;7.57;;;;;;;;;;5053090;28;20049;-71
2022/09/11 05:54:45;;;;;;;18.42;8.20;;;;;;;;;;5053249;28;20048;-71
2022/09/11 05:57:11;;;;;;;24.42;8.55;;;;;;;;;;5052906;28;20374;-71
2022/09/11 05:59:38;;;;;;;23.63;8.88;;;;;;;;;;5053018;28;20079;-71
2022/09/11 06:02:05;;;;;;;16.27;8.80;;;;;;;;;;5053086;28;20053;-71
2022/09/11 06:04:32;;;;;;;23.00;9.30;;;;;;;;;;5053051;28;20049;-71
2022/09/11 06:06:59;;;;;;;;;;;;;;;;;;5053093;28;20059;-71
2022/09/11 06:09:25;;;;;;;26.40;12.13;;;;;;;;;;5052931;28;19921;-71
2022/09/11 06:11:52;;;;;;;17.52;10.85;;;;;;;;;;5052368;28;20052;-71
2022/09/11 06:14:18;;;;;;;29.58;12.38;;;;;;;;;;5051524;28;20055;-71
2022/09/11 06:16:46;;;;;;;28.48;11.65;;;;;;;;;;5052806;28;20049;-71
2022/09/11 06:19:13;;;;;;;28.08;10.90;;;;;;;;;;5052447;28;20056;-71
2022/09/11 06:21:39;;;;;;;16.73;11.75;;;;;;;;;;5052560;28;20053;-71
2022/09/11 06:24:06;;;;;;;24.17;11.65;;;;;;;;;;5052690;28;20463;-71
2022/09/11 06:26:34;;;;;;;20.05;10.90;;;;;;;;;;5052479;28;20139;-71
2022/09/11 06:29:00;;;;;;;24.02;11.57;;;;;;;;;;5052259;28;20045;-71
2022/09/11 06:31:27;;;;;;;21.80;12.27;;;;;;;;;;5052500;28;20062;-72
2022/09/11 06:33:53;;;;;;;17.10;10.10;;;;;;;;;;5052028;28;20049;-71
2022/09/11 06:36:25;;;;;;;16.90;10.02;;;;;;;;;;5052430;28;20408;-71
2022/09/11 06:42:02;;;;;;;14.98;11.73;;;;;;;;;;5052088;28;20103;-71
2022/09/11 06:44:28;;;;;;;17.48;12.60;;;;;;;;;;5052222;28;20045;-71
2022/09/11 06:46:56;;;;;;;17.67;11.73;;;;;;;;;;5052428;28;20055;-71
2022/09/11 06:49:22;;;;;;;15.45;10.18;;;;;;;;;;5052174;28;20045;-71
2022/09/11 06:51:49;;;;;;;14.00;10.27;;;;;;;;;;5052344;28;20446;-72
2022/09/11 06:54:15;;;;;;;14.52;10.35;;;;;;;;;;5046266;28;20045;-71
2022/09/11 06:56:41;;;;;;;12.15;9.70;;;;;;;;;;5043455;28;20048;-71
2022/09/11 06:59:09;;;;;;;12.23;9.75;;;;;;;;;;5051727;28;20041;-71
2022/09/11 07:01:35;;;;;;;11.82;10.65;;;;;;;;;;5051372;28;20053;-72
2022/09/11 07:04:01;;;;;;;16.65;11.02;;;;;;;;;;5030809;28;20085;-72
2022/09/11 07:06:31;;;;;;;15.43;11.55;;;;;;;;;;5039569;28;20048;-72
2022/09/11 07:09:01;;;;;;;13.05;11.50;;;;;;;;;;5051599;28;20407;-70
2022/09/11 07:11:32;;;;;;;13.10;11.70;;;;;;;;;;5050983;28;20056;-71
2022/09/11 07:13:58;;;;;;;12.43;11.10;;;;;;;;;;5050999;28;20405;-71
2022/09/11 07:16:25;;;;;;;12.52;11.25;;;;;;;;;;5051313;28;20059;-71
2022/09/11 07:18:51;;;;;;;11.80;10.73;;;;;;;;;;5051098;28;20053;-71
2022/09/11 07:21:22;;;;;;;11.20;10.30;;;;;;;;;;5035463;28;20413;-72
2022/09/11 07:23:50;;;;;;;11.02;10.07;;;;;;;;;;5030632;28;20053;-72
2022/09/11 07:26:16;;;;;;;11.30;10.40;;;;;;;;;;5030844;28;20046;-72
2022/09/11 07:28:43;;;;;;;10.68;9.77;;;;;;;;;;5030836;28;20060;-72
2022/09/11 07:31:10;;;;;;;11.10;10.00;;;;;;;;;;5028714;28;20057;-72
2022/09/11 07:33:37;;;;;;;;;;;;;;;;;;5050711;28;20120;-71
2022/09/11 07:36:10;;;;;;;10.73;9.65;;;;;;;;;;5047101;28;19980;-71
2022/09/11 07:38:40;;;;;;;9.32;8.60;;;;;;;;;;5030103;28;20076;-70
2022/09/11 07:41:07;;;;;;;10.70;9.80;;;;;;;;;;5029890;28;20041;-70
2022/09/11 07:43:34;;;;;;;10.52;9.55;;;;;;;;;;5028990;28;20049;-71
2022/09/11 07:46:01;;;;;;;10.65;9.75;;;;;;;;;;5030239;28;20046;-71
2022/09/11 07:48:28;;;;;;;10.48;9.57;;;;;;;;;;5029044;28;20053;-71
2022/09/11 07:51:01;;;;;;;10.30;9.48;;;;;;;;;;5028963;28;20053;-72
2022/09/11 07:53:30;;;;;;;10.65;9.60;;;;;;;;;;5029781;28;20041;-72
2022/09/11 07:56:00;;;;;;;10.82;9.82;;;;;;;;;;5030401;28;20409;-71
2022/09/11 07:58:29;;;;;;;9.77;9.02;;;;;;;;;;5029753;28;20041;-75
2022/09/11 08:00:57;;;;;;;10.48;9.40;;;;;;;;;;5029954;28;20509;-73
2022/09/11 08:03:24;;;;;;;10.02;9.15;;;;;;;;;;5030554;28;20045;-71
2022/09/11 08:05:55;;;;;;;9.63;8.82;;;;;;;;;;5032615;28;20045;-73
2022/09/11 08:08:22;;;;;;;9.75;8.85;;;;;;;;;;5050376;28;20422;-72
2022/09/11 08:10:48;;;;;;;8.93;8.18;;;;;;;;;;5049919;28;20088;-72
2022/09/11 08:13:15;;;;;;;10.35;9.45;;;;;;;;;;5049339;28;20052;-73
2022/09/11 08:15:46;;;;;;;9.88;8.98;;;;;;;;;;5034179;28;20041;-72
2022/09/11 08:18:13;;;;;;;9.63;8.75;;;;;;;;;;5033790;28;20055;-69
2022/09/11 08:20:40;;;;;;;10.27;9.32;;;;;;;;;;5043322;28;20516;-72
2022/09/11 08:23:08;;;;;;;10.27;9.27;;;;;;;;;;5052036;28;20051;-71
2022/09/11 08:25:38;;;;;;;10.00;9.13;;;;;;;;;;5034276;28;20052;-69
2022/09/11 08:28:04;;;;;;;9.27;8.50;;;;;;;;;;5050657;28;20055;-70
2022/09/11 08:30:31;;;;;;;9.48;8.57;;;;;;;;;;5052038;28;20052;-68
2022/09/11 08:32:58;;;;;;;9.60;8.68;;;;;;;;;;5053702;28;20055;-69
2022/09/11 08:35:25;;;;;;;8.35;7.65;;;;;;;;;;5054134;28;20055;-70
2022/09/11 08:37:53;;;;;;;7.97;7.28;;;;;;;;;;5053900;28;20048;-70
2022/09/11 08:40:20;;;;;;;8.35;7.55;;;;;;;;;;5053894;28;20045;-70
2022/09/11 08:42:47;;;;;;;8.57;7.80;;;;;;;;;;5053774;28;20055;-70
2022/09/11 08:45:15;;;;;;;7.90;7.30;;;;;;;;;;5053693;28;20128;-70
2022/09/11 08:47:45;;;;;;;8.55;7.85;;;;;;;;;;5032599;28;20508;-72
2022/09/11 08:50:14;;;;;;;7.97;7.38;;;;;;;;;;5047410;28;20060;-72
2022/09/11 08:52:41;;;;;;;7.07;6.47;;;;;;;;;;5032756;28;20053;-73
2022/09/11 08:55:11;;;;;;;7.45;6.75;;;;;;;;;;5040811;28;20468;-69
2022/09/11 08:57:50;;;;;;;6.78;5.93;;;;;;;;;;5053572;28;20049;-72
2022/09/11 09:00:20;;;;;;;7.00;5.85;;;;;;;;;;5053734;28;20055;-71
2022/09/11 09:02:56;;;;;;;6.82;5.35;;;;;;;;;;5038967;28;20053;-69
2022/09/11 09:05:33;;;;;;;5.72;5.20;;;;;;;;;;5051070;28;20057;-73
2022/09/11 09:08:16;;;;;;;5.47;4.97;;;;;;;;;;5039025;28;20088;-69
2022/09/11 09:10:42;;;;;;;5.75;5.20;;;;;;;;;;5053130;28;20069;-69
2022/09/11 09:13:27;;;;;;;5.70;5.18;;;;;;;;;;5053273;28;20053;-70
2022/09/11 09:16:12;;;;;;;6.50;6.00;;;;;;;;;;5040158;28;20049;-72
2022/09/11 09:18:41;;;;;;;5.97;5.40;;;;;;;;;;5032939;28;20091;-69
2022/09/11 09:21:20;;;;;;;6.05;5.45;;;;;;;;;;5040026;28;20507;-73
2022/09/11 09:23:50;;;;;;;6.05;5.55;;;;;;;;;;5032536;28;20049;-75
2022/09/11 09:26:17;;;;;;;5.60;5.18;;;;;;;;;;5032833;28;20054;-74
2022/09/11 09:28:45;;;;;;;5.20;4.80;;;;;;;;;;5032844;28;20402;-72
2022/09/11 09:31:14;;;;;;;6.15;5.03;;;;;;;;;;5030564;28;20045;-73
2022/09/11 09:33:51;;;;;;;4.55;4.20;;;;;;;;;;5032671;28;20133;-73
2022/09/11 09:36:28;;;;;;;3.92;3.63;;;;;;;;;;5040057;28;20051;-71
2022/09/11 09:38:57;;;;;;;3.78;3.38;;;;;;;;;;5017942;28;20054;-71
2022/09/11 09:41:38;;;;;;;3.10;2.90;;;;;;;;;;5032447;28;20045;-70
2022/09/11 09:44:23;;;;;;;2.70;2.50;;;;;;;;;;5032332;28;20049;-71
2022/09/11 09:46:51;;;;;;;2.40;2.15;;;;;;;;;;5031419;28;20049;-73
2022/09/11 09:49:23;;;;;;;3.42;2.13;;;;;;;;;;5035801;28;20124;-73
2022/09/11 09:51:50;;;;;;;3.25;2.20;;;;;;;;;;5029927;28;20046;-73
2022/09/11 09:54:16;;;;;;;;;;;;;;;;;;5032529;28;20510;-71
2022/09/11 09:56:48;;;;;;;3.00;1.70;;;;;;;;;;5032085;28;19929;-72
2022/09/11 09:59:17;;;;;;;2.58;1.70;;;;;;;;;;5032266;28;20045;-75
2022/09/11 10:01:45;;;;;;;2.60;1.65;;;;;;;;;;5031974;28;20042;-69
2022/09/11 10:04:16;;;;;;;2.03;1.77;;;;;;;;;;5032040;28;20051;-70
2022/09/11 10:06:44;;;;;;;1.95;1.70;;;;;;;;;;5032559;28;20068;-73
2022/09/11 10:09:17;;;;;;;2.15;1.50;;;;;;;;;;5038521;28;20049;-70
2022/09/11 10:11:45;;;;;;;1.88;1.40;;;;;;;;;;5032457;28;20064;-71
2022/09/11 10:14:18;;;;;;;2.47;1.70;;;;;;;;;;5035658;28;20053;-73
2022/09/11 10:17:05;;;;;;;3.65;1.50;;;;;;;;;;5046623;28;20057;-71
2022/09/11 10:19:40;;;;;;;2.67;1.90;;;;;;;;;;5031037;28;20047;-70
2022/09/11 10:22:22;;;;;;;3.03;1.63;;;;;;;;;;5039513;28;20408;-70
2022/09/11 10:24:58;;;;;;;2.60;1.60;;;;;;;;;;5051889;28;20489;-71
2022/09/11 10:27:26;;;;;;;3.65;1.95;;;;;;;;;;5052051;28;20749;-71
2022/09/11 10:29:54;;;;;;;1.83;1.63;;;;;;;;;;5033024;28;20103;-71
2022/09/11 10:32:23;;;;;;;2.83;1.67;;;;;;;;;;5032384;28;20391;-70
2022/09/11 10:34:51;;;;;;;2.38;1.50;;;;;;;;;;5051617;28;20053;-70
2022/09/11 10:37:23;;;;;;;1.48;1.30;;;;;;;;;;5032535;28;20219;-68
2022/09/11 10:39:49;;;;;;;1.55;1.30;;;;;;;;;;5048712;28;20638;-70
2022/09/11 10:42:16;;;;;;;;;;;;;;;;;;5036561;28;20072;-70
2022/09/11 10:44:45;;;;;;;1.85;1.05;;;;;;;;;;5036768;28;19921;-71
2022/09/11 10:47:27;;;;;;;1.50;1.10;;;;;;;;;;5048545;28;20060;-72
2022/09/11 10:50:23;;;;;;;1.30;1.20;;;;;;;;;;5040491;28;20152;-70
2022/09/11 10:53:08;;;;;;;3.22;1.40;;;;;;;;;;5045425;28;20055;-71
2022/09/11 10:55:40;;;;;;;1.85;1.10;;;;;;;;;;5031423;28;20045;-72
2022/09/11 10:58:12;;;;;;;0.90;0.90;;;;;;;;;;5030090;28;20041;-72
2022/09/11 11:00:39;;;;;;;1.85;1.23;;;;;;;;;;5031160;28;20046;-70
2022/09/11 11:03:08;;;;;;;2.17;1.20;;;;;;;;;;5031346;28;20565;-72
2022/09/11 11:05:44;;;;;;;1.92;1.30;;;;;;;;;;5031536;28;20060;-68
2022/09/11 11:08:29;;;;;;;0.95;0.80;;;;;;;;;;5032437;28;20057;-72
2022/09/11 11:11:23;;;;;;;1.92;1.52;;;;;;;;;;5040668;28;20061;-70
2022/09/11 11:14:03;;;;;;;1.70;1.00;;;;;;;;;;5017456;28;20049;-76
2022/09/11 11:16:32;;;;;;;1.00;0.90;;;;;;;;;;5047868;28;20041;-74
2022/09/11 11:19:05;;;;;;;1.98;1.10;;;;;;;;;;5032200;28;20042;-68
2022/09/11 11:21:31;;;;;;;2.63;0.90;;;;;;;;;;5036964;28;20050;-69
2022/09/11 11:24:14;;;;;;;1.45;1.02;;;;;;;;;;5031531;28;20057;-68
2022/09/11 11:27:01;;;;;;;1.75;0.70;;;;;;;;;;5024640;28;20435;-69
2022/09/11 11:29:27;;;;;;;;;;;;;;;;;;5030867;28;20485;-69
2022/09/11 11:32:08;;;;;;;1.10;0.60;;;;;;;;;;5047454;28;19924;-69
2022/09/11 11:35:06;;;;;;;1.15;0.55;;;;;;;;;;5051596;28;20055;-69
2022/09/11 11:37:33;;;;;;;1.42;0.63;;;;;;;;;;5051751;28;20044;-70
2022/09/11 11:40:19;;;;;;;1.63;0.70;;;;;;;;;;5051279;28;20045;-71
2022/09/11 11:42:49;;;;;;;2.03;0.60;;;;;;;;;;5050326;28;20055;-71
2022/09/11 11:45:24;;;;;;;0.47;0.40;;;;;;;;;;5051623;28;20083;-70
2022/09/11 11:47:51;;;;;;;2.45;0.60;;;;;;;;;;5053838;28;20063;-72
2022/09/11 11:50:44;;;;;;;1.42;0.60;;;;;;;;;;5055063;28;20045;-72
2022/09/11 11:53:11;;;;;;;1.05;0.43;;;;;;;;;;5053854;28;20053;-71
2022/09/11 11:55:37;;;;;;;;;;;;;;;;;;5055258;28;20048;-71
2022/09/11 11:58:19;;;;;;;2.60;0.50;;;;;;;;;;5055075;28;19921;-71
2022/09/11 12:00:48;;;;;;;2.22;0.50;;;;;;;;;;5044373;28;20425;-71
2022/09/11 12:03:24;;;;;;;1.08;0.50;;;;;;;;;;5042002;28;20047;-71
2022/09/11 12:05:50;;;;;;;1.48;0.52;;;;;;;;;;5055536;28;20083;-70
2022/09/11 12:08:17;;;;;;;0.82;0.45;;;;;;;;;;5054846;28;20049;-70
2022/09/11 12:10:46;;;;;;;1.13;0.40;;;;;;;;;;5054707;28;20057;-70
2022/09/11 12:13:14;;;;;;;1.65;0.70;;;;;;;;;;5054882;28;20413;-70
2022/09/11 12:15:59;;;;;;;0.98;0.50;;;;;;;;;;5039842;28;20060;-70
2022/09/11 12:18:25;;;;;;;1.30;0.70;;;;;;;;;;5035062;28;20119;-70
2022/09/11 12:21:13;;;;;;;1.23;0.50;;;;;;;;;;5049760;28;20504;-70
2022/09/11 12:23:48;;;;;;;2.38;0.60;;;;;;;;;;5054663;28;20064;-70
2022/09/11 12:26:17;;;;;;;1.30;0.60;;;;;;;;;;5051717;28;20049;-72
2022/09/11 12:28:44;;;;;;;2.63;0.68;;;;;;;;;;5034298;28;20049;-72
2022/09/11 12:31:14;;;;;;;1.52;0.50;;;;;;;;;;5044545;28;20053;-71
2022/09/11 12:33:42;;;;;;;1.50;0.40;;;;;;;;;;5053672;28;20471;-70
2022/09/11 12:36:08;;;;;;;0.68;0.60;;;;;;;;;;5052296;28;20045;-70
2022/09/11 12:38:37;;;;;;;0.43;0.40;;;;;;;;;;5053096;28;20497;-71
2022/09/11 12:41:14;;;;;;;2.15;0.50;;;;;;;;;;5053893;28;20045;-71
2022/09/11 12:43:40;;;;;;;;;;;;;;;;;;5054664;28;20040;-71
2022/09/11 12:46:26;;;;;;;1.20;0.57;;;;;;;;;;5053933;28;19928;-71
2022/09/11 12:48:53;;;;;;;1.98;0.55;;;;;;;;;;5038185;28;20053;-71
2022/09/11 12:51:41;;;;;;;0.93;0.52;;;;;;;;;;5037699;28;20045;-70
2022/09/11 12:54:17;;;;;;;1.73;0.50;;;;;;;;;;5054325;28;20475;-70
2022/09/11 12:56:48;;;;;;;0.35;0.35;;;;;;;;;;5053979;28;20056;-70
2022/09/11 12:59:41;;;;;;;1.58;0.50;;;;;;;;;;5053297;28;20041;-70
2022/09/11 13:02:37;;;;;;;1.85;0.50;;;;;;;;;;5049979;28;20053;-70
2022/09/11 13:05:14;;;;;;;1.98;0.47;;;;;;;;;;5049083;28;20443;-70
2022/09/11 13:07:44;;;;;;;0.95;0.22;;;;;;;;;;5054222;28;20044;-70
2022/09/11 13:10:29;;;;;;;1.25;0.40;;;;;;;;;;5053956;28;20053;-70
2022/09/11 13:12:57;;;;;;;0.38;0.20;;;;;;;;;;5054145;28;20140;-70
2022/09/11 13:15:35;;;;;;;1.63;0.32;;;;;;;;;;5053390;28;20041;-70
2022/09/11 13:18:22;;;;;;;0.40;0.20;;;;;;;;;;5053849;28;20103;-70
2022/09/11 13:21:17;;;;;;;1.27;0.40;;;;;;;;;;5053538;28;20056;-70
2022/09/11 13:23:47;;;;;;;1.17;0.30;;;;;;;;;;5052184;28;20488;-70
2022/09/11 13:26:24;;;;;;;1.83;0.35;;;;;;;;;;5053383;28;20049;-70
2022/09/11 13:28:52;;;;;;;0.40;0.40;;;;;;;;;;5053334;28;20063;-70
2022/09/11 13:31:32;;;;;;;0.70;0.30;;;;;;;;;;5053057;28;20055;-70
2022/09/11 13:33:59;;;;;;;0.30;0.20;;;;;;;;;;5053131;28;20514;-71
2022/09/11 13:36:26;;;;;;;1.25;0.50;;;;;;;;;;5052910;28;20045;-70
2022/09/11 13:38:54;;;;;;;1.40;0.30;;;;;;;;;;5053076;28;20401;-69
2022/09/11 13:41:43;;;;;;;1.67;0.40;;;;;;;;;;5053169;28;20070;-69
2022/09/11 13:44:32;;;;;;;1.80;0.60;;;;;;;;;;5053162;28;20063;-70
2022/09/11 13:46:59;;;;;;;0.38;0.30;;;;;;;;;;5052742;28;20052;-70
2022/09/11 13:49:34;;;;;;;1.25;0.40;;;;;;;;;;5052712;28;20055;-69
2022/09/11 13:52:03;;;;;;;0.70;0.30;;;;;;;;;;5053170;28;20135;-70
2022/09/11 13:54:31;;;;;;;0.38;0.30;;;;;;;;;;5052514;28;20049;-71
2022/09/11 13:57:01;;;;;;;0.70;0.20;;;;;;;;;;5052585;28;20037;-71
2022/09/11 13:59:35;;;;;;;1.73;0.20;;;;;;;;;;5052659;28;20068;-71
2022/09/11 14:02:03;;;;;;;0.75;0.30;;;;;;;;;;5052206;28;20052;-71
2022/09/11 14:04:31;;;;;;;1.08;0.47;;;;;;;;;;5052658;28;20102;-71
2022/09/11 14:06:58;;;;;;;1.33;0.20;;;;;;;;;;5052560;28;20049;-70
2022/09/11 14:09:24;;;;;;;0.68;0.30;;;;;;;;;;5052391;28;20068;-70
2022/09/11 14:11:51;;;;;;;1.33;0.28;;;;;;;;;;5052181;28;20052;-70
2022/09/11 14:14:23;;;;;;;0.68;0.22;;;;;;;;;;5052212;28;20049;-70
2022/09/11 14:16:53;;;;;;;1.17;0.30;;;;;;;;;;5052183;28;20052;-69
2022/09/11 14:19:41;;;;;;;1.05;0.30;;;;;;;;;;5052580;28;20044;-70
2022/09/11 14:22:15;;;;;;;1.35;0.30;;;;;;;;;;5049823;28;20045;-70
2022/09/11 14:24:55;;;;;;;0.77;0.30;;;;;;;;;;5042729;28;20045;-69
2022/09/11 14:27:33;;;;;;;1.30;0.30;;;;;;;;;;5031709;28;20049;-69
2022/09/11 14:29:59;;;;;;;1.10;0.30;;;;;;;;;;5032049;28;20049;-69
2022/09/11 14:32:38;;;;;;;0.73;0.38;;;;;;;;;;5030674;28;20045;-69
2022/09/11 14:35:07;;;;;;;1.10;0.30;;;;;;;;;;5031651;28;20091;-69
2022/09/11 14:37:39;;;;;;;1.05;0.40;;;;;;;;;;5036966;28;20045;-68
2022/09/11 14:40:15;;;;;;;0.45;0.35;;;;;;;;;;5029549;28;20045;-68
2022/09/11 14:42:42;;;;;;;;;;;;;;;;;;5052122;28;20041;-69
2022/09/11 14:45:09;;;;;;;1.23;0.30;;;;;;;;;;5051226;28;19959;-69
2022/09/11 14:47:35;;;;;;;;;;;;;;;;;;5051950;28;20053;-69
2022/09/11 14:50:04;;;;;;;0.80;0.50;;;;;;;;;;5043840;28;19925;-70
2022/09/11 14:52:31;;;;;;;0.82;0.50;;;;;;;;;;5034616;28;20045;-70
2022/09/11 14:54:58;;;;;;;2.08;0.60;;;;;;;;;;5043746;28;20107;-69
2022/09/11 14:57:29;;;;;;;0.70;0.35;;;;;;;;;;5048345;28;20098;-69
2022/09/11 14:59:58;;;;;;;0.70;0.30;;;;;;;;;;5036969;28;20055;-69
2022/09/11 15:02:26;;;;;;;1.63;0.30;;;;;;;;;;5040115;28;20053;-69
2022/09/11 15:04:55;;;;;;;1.13;0.28;;;;;;;;;;5038632;28;20493;-69
2022/09/11 15:07:24;;;;;;;0.55;0.25;;;;;;;;;;5043013;28;20041;-69